Time;durP1;ratioP1;P1;durP2;ratioP2;P2;SDS_P1;SDS_P2;PMS_P1;PMS_P2;Temp;Humidity;BMP_temperature;BMP_pressure;BME280_temperature;BME280_humidity;BME280_pressure;Samples;Min_cycle;Max_cycle;Signal;HPM_P1;HPM_P2
2022/09/19 00:01:22;;;;;;;46.47;44.27;;;8.80;99.90;;;;;;5111707;28;20208;-75
2022/09/19 00:03:59;;;;;;;49.10;46.80;;;8.70;99.90;;;;;;5111720;28;20207;-75
2022/09/19 00:06:27;;;;;;;25.43;24.27;;;8.70;99.90;;;;;;5111929;28;20652;-75
2022/09/19 00:08:54;;;;;;;22.40;21.40;;;8.60;99.90;;;;;;5111216;28;20215;-75
2022/09/19 00:11:20;;;;;;;23.13;21.77;;;8.70;99.90;;;;;;5093719;28;20186;-75
2022/09/19 00:13:48;;;;;;;13.13;12.37;;;8.70;99.90;;;;;;5111601;28;20737;-75
2022/09/19 00:16:38;;;;;;;11.23;10.63;;;8.70;99.90;;;;;;5111685;28;20247;-75
2022/09/19 00:19:10;;;;;;;10.63;10.00;;;8.70;99.90;;;;;;5098703;28;20257;-75
2022/09/19 00:21:41;;;;;;;13.87;13.27;;;8.70;99.90;;;;;;5111364;28;20205;-74
2022/09/19 00:26:55;;;;;;;10.03;9.53;;;8.70;99.90;;;;;;5111154;28;20184;-75
2022/09/19 00:29:23;;;;;;;27.60;26.03;;;8.60;99.90;;;;;;5093316;28;20183;-75
2022/09/19 00:31:50;;;;;;;10.70;10.10;;;8.60;99.90;;;;;;5093398;28;20180;-75
2022/09/19 00:34:18;;;;;;;10.10;9.70;;;8.50;99.90;;;;;;5093306;28;20192;-75
2022/09/19 00:36:44;;;;;;;4.50;4.20;;;8.50;99.90;;;;;;5093053;28;20680;-74
2022/09/19 00:39:12;;;;;;;8.30;8.00;;;8.40;99.90;;;;;;5111260;28;20219;-75
2022/09/19 00:41:38;;;;;;;14.67;14.07;;;8.30;99.90;;;;;;5111405;28;20183;-75
2022/09/19 00:44:25;;;;;;;16.17;15.50;;;8.30;99.90;;;;;;5093196;28;20195;-75
2022/09/19 00:46:55;;;;;;;6.37;6.17;;;8.20;99.90;;;;;;5110719;28;20187;-74
2022/09/19 00:49:24;;;;;;;4.00;3.90;;;8.20;99.90;;;;;;5111134;28;20657;-74
2022/09/19 00:51:53;;;;;;;10.20;9.77;;;8.10;99.90;;;;;;5093072;28;20386;-74
2022/09/19 00:54:27;;;;;;;16.33;15.67;;;8.00;99.90;;;;;;5107592;28;20224;-75
2022/09/19 00:56:54;;;;;;;8.40;8.10;;;7.90;99.90;;;;;;5093670;28;20181;-74
2022/09/19 00:59:23;;;;;;;11.90;11.43;;;8.00;99.90;;;;;;5110927;28;20294;-74
2022/09/19 01:01:53;;;;;;;43.70;41.70;;;7.90;99.90;;;;;;5113086;28;20180;-74
2022/09/19 01:04:22;;;;;;;43.93;41.70;;;8.00;99.90;;;;;;5114416;28;20196;-75
2022/09/19 01:07:01;;;;;;;37.10;35.40;;;8.00;99.90;;;;;;5114728;28;20270;-74
2022/09/19 01:09:47;;;;;;;42.00;40.00;;;8.00;99.90;;;;;;5115138;28;20176;-75
2022/09/19 01:12:16;;;;;;;39.60;37.57;;;7.90;99.90;;;;;;5114596;28;20658;-74
2022/09/19 01:15:02;;;;;;;31.40;29.97;;;8.00;99.90;;;;;;5114748;28;20180;-75
2022/09/19 01:17:52;;;;;;;23.07;21.70;;;7.90;99.90;;;;;;5114430;28;20188;-74
2022/09/19 01:20:53;;;;;;;25.50;24.13;;;7.90;99.90;;;;;;5114790;28;20219;-75
2022/09/19 01:23:32;;;;;;;7.73;7.43;;;7.80;99.90;;;;;;5114563;28;20196;-75
2022/09/19 01:26:01;;;;;;;16.73;15.83;;;7.80;99.90;;;;;;5118888;28;20176;-74
2022/09/19 01:28:56;;;;;;;13.90;13.27;;;7.80;99.90;;;;;;5103853;28;20319;-75
2022/09/19 01:31:27;;;;;;;15.63;14.97;;;7.70;99.90;;;;;;5098161;28;20207;-76
2022/09/19 01:34:04;;;;;;;17.40;16.70;;;7.80;99.90;;;;;;5116451;28;20286;-75
2022/09/19 01:36:43;;;;;;;17.53;16.73;;;7.70;99.90;;;;;;5114735;28;20225;-74
2022/09/19 01:39:09;;;;;;;24.53;23.43;;;7.70;99.90;;;;;;5114359;28;20271;-75
2022/09/19 01:41:35;;;;;;;30.43;29.03;;;7.70;99.90;;;;;;5113990;28;20209;-74
2022/09/19 01:44:08;;;;;;;20.03;19.13;;;7.70;99.90;;;;;;5095978;28;20208;-74
2022/09/19 01:46:52;;;;;;;8.13;7.83;;;7.60;99.90;;;;;;5114339;28;20184;-74
2022/09/19 01:49:46;;;;;;;6.20;5.90;;;7.50;99.90;;;;;;5095943;28;20210;-74
2022/09/19 01:52:53;;;;;;;14.07;13.30;;;7.40;99.90;;;;;;5095688;28;20771;-76
2022/09/19 01:55:35;;;;;;;21.63;20.73;;;7.40;99.90;;;;;;5099499;28;20557;-74
2022/09/19 01:58:19;;;;;;;57.80;55.17;;;7.40;99.90;;;;;;5113274;28;20535;-74
2022/09/19 02:01:08;;;;;;;27.43;26.20;;;7.50;99.90;;;;;;5113947;28;20207;-74
2022/09/19 02:03:48;;;;;;;16.40;15.73;;;7.50;99.90;;;;;;5114022;28;20348;-75
2022/09/19 02:06:37;;;;;;;7.97;7.67;;;7.40;99.90;;;;;;5095636;28;20185;-74
2022/09/19 02:09:16;;;;;;;6.30;6.10;;;7.40;99.90;;;;;;5113256;28;20184;-75
2022/09/19 02:11:43;;;;;;;6.60;6.40;;;7.40;99.90;;;;;;5094867;28;20176;-75
2022/09/19 02:14:16;;;;;;;7.10;6.90;;;7.30;99.90;;;;;;5095336;28;20814;-74
2022/09/19 02:16:51;;;;;;;6.80;6.60;;;7.30;99.90;;;;;;5096353;28;20288;-75
2022/09/19 02:19:25;;;;;;;21.43;20.47;;;7.20;99.90;;;;;;5095463;28;20546;-75
2022/09/19 02:21:58;;;;;;;16.97;16.27;;;7.10;99.90;;;;;;5113553;28;20592;-75
2022/09/19 02:24:30;;;;;;;16.33;15.63;;;7.10;99.90;;;;;;5113348;28;20245;-75
2022/09/19 02:27:07;;;;;;;23.63;22.63;;;7.10;99.90;;;;;;5107974;28;20313;-76
2022/09/19 02:29:38;;;;;;;38.07;36.23;;;7.20;99.90;;;;;;5113383;28;20244;-75
2022/09/19 02:32:07;;;;;;;25.73;24.47;;;7.20;99.90;;;;;;5113361;28;20650;-75
2022/09/19 02:34:34;;;;;;;37.30;35.63;;;7.20;99.90;;;;;;5113183;28;20203;-75
2022/09/19 02:37:19;;;;;;;33.70;32.20;;;7.30;99.90;;;;;;5112624;28;20192;-75
2022/09/19 02:40:05;;;;;;;34.10;32.30;;;7.30;99.90;;;;;;5113168;28;20201;-74
2022/09/19 02:42:46;;;;;;;31.37;29.93;;;7.40;99.90;;;;;;5095198;28;20267;-75
2022/09/19 02:45:17;;;;;;;27.53;26.13;;;7.50;99.90;;;;;;5113251;28;20176;-76
2022/09/19 02:48:01;;;;;;;20.77;19.87;;;7.60;99.90;;;;;;5112768;28;20181;-75
2022/09/19 02:50:40;;;;;;;27.70;26.40;;;7.60;99.90;;;;;;5112993;28;20187;-75
2022/09/19 02:53:12;;;;;;;19.70;18.80;;;7.70;99.90;;;;;;5112257;28;20208;-75
2022/09/19 02:55:45;;;;;;;36.97;35.27;;;7.70;99.90;;;;;;5113021;28;20191;-75
2022/09/19 02:58:15;;;;;;;38.47;35.77;;;7.70;99.90;;;;;;5112606;28;20275;-75
2022/09/19 03:00:51;;;;;;;64.20;61.10;;;7.80;99.90;;;;;;5094822;28;20204;-75
2022/09/19 03:06:11;;;;;;;72.53;69.17;;;7.70;99.90;;;;;;5112345;28;20184;-75
2022/09/19 03:08:38;;;;;;;70.50;66.93;;;7.70;99.90;;;;;;5098180;28;20165;-75
2022/09/19 03:11:11;;;;;;;46.17;44.00;;;7.60;99.90;;;;;;5090324;28;20189;-75
2022/09/19 03:13:40;;;;;;;49.43;47.00;;;7.70;99.90;;;;;;5075244;28;20204;-75
2022/09/19 03:16:11;;;;;;;42.50;40.30;;;7.70;99.90;;;;;;5092552;28;20185;-74
2022/09/19 03:18:39;;;;;;;25.57;24.20;;;7.80;99.90;;;;;;5096029;28;20185;-75
2022/09/19 03:21:08;;;;;;;14.43;13.53;;;7.90;99.90;;;;;;5094321;28;20255;-75
2022/09/19 03:23:44;;;;;;;11.27;10.73;;;7.90;99.90;;;;;;5111419;28;20201;-75
2022/09/19 03:26:18;;;;;;;9.40;9.03;;;8.00;99.90;;;;;;5112316;28;20179;-75
2022/09/19 03:28:44;;;;;;;29.53;28.13;;;8.00;99.90;;;;;;5112063;28;20195;-75
2022/09/19 03:31:10;;;;;;;11.93;11.40;;;8.10;99.90;;;;;;5112279;28;20180;-75
2022/09/19 03:33:36;;;;;;;41.20;39.27;;;8.10;99.90;;;;;;5112090;28;20861;-75
2022/09/19 03:36:07;;;;;;;14.47;13.50;;;8.20;99.90;;;;;;5094039;28;20177;-75
2022/09/19 03:38:44;;;;;;;37.27;35.37;;;8.20;99.90;;;;;;5111668;28;20187;-75
2022/09/19 03:41:11;;;;;;;89.67;85.43;;;8.10;99.90;;;;;;5112174;28;20679;-75
2022/09/19 03:43:37;;;;;;;100.80;95.90;;;8.20;99.90;;;;;;5112130;28;20269;-75
2022/09/19 03:46:03;;;;;;;101.53;96.33;;;8.10;99.90;;;;;;5094193;28;20215;-75
2022/09/19 03:48:32;;;;;;;75.00;71.47;;;8.10;99.90;;;;;;5111279;28;20183;-75
2022/09/19 03:51:00;;;;;;;17.77;16.80;;;8.10;99.90;;;;;;5093639;28;20192;-75
2022/09/19 03:53:27;;;;;;;6.90;6.50;;;8.20;99.90;;;;;;5130797;22;20302;-79
2022/09/19 03:55:54;;;;;;;17.17;16.27;;;8.20;99.90;;;;;;5112022;28;20184;-77
2022/09/19 03:58:21;;;;;;;6.73;5.13;;;8.20;99.90;;;;;;5111398;28;20172;-77
2022/09/19 04:00:46;;;;;;;4.23;3.93;;;8.20;99.90;;;;;;5112313;28;20261;-78
2022/09/19 04:03:12;;;;;;;3.90;3.70;;;8.30;99.90;;;;;;5112946;28;20701;-78
2022/09/19 04:05:38;;;;;;;5.17;4.00;;;8.40;99.90;;;;;;5113634;28;20176;-78
2022/09/19 04:08:04;;;;;;;5.63;4.10;;;8.40;99.90;;;;;;5114277;28;20192;-78
2022/09/19 04:10:30;;;;;;;6.13;4.70;;;8.50;99.90;;;;;;5112434;28;20191;-78
2022/09/19 04:12:56;;;;;;;21.23;20.13;;;8.50;99.90;;;;;;5113043;28;20180;-78
2022/09/19 04:15:22;;;;;;;9.33;8.83;;;8.50;99.90;;;;;;5111480;28;20240;-78
2022/09/19 04:17:48;;;;;;;8.07;6.30;;;8.50;99.90;;;;;;5101820;28;20207;-78
2022/09/19 04:20:14;;;;;;;18.03;17.13;;;8.50;99.90;;;;;;5092162;28;20239;-78
2022/09/19 04:22:40;;;;;;;35.47;33.50;;;8.50;99.90;;;;;;5090614;28;20175;-77
2022/09/19 04:25:10;;;;;;;41.60;37.67;;;8.40;99.90;;;;;;5097805;28;20183;-77
2022/09/19 04:27:37;;;;;;;34.10;32.50;;;8.40;99.90;;;;;;5111051;28;20187;-77
2022/09/19 04:30:04;;;;;;;38.13;35.83;;;8.40;99.90;;;;;;5111417;28;20719;-76
2022/09/19 04:32:31;;;;;;;21.90;20.67;;;8.50;99.90;;;;;;5094836;28;20182;-76
2022/09/19 04:34:59;;;;;;;11.37;10.77;;;8.50;99.90;;;;;;5090741;28;20283;-77
2022/09/19 04:37:26;;;;;;;34.83;32.80;;;8.50;99.90;;;;;;5090584;28;20188;-76
2022/09/19 04:39:52;;;;;;;54.77;51.97;;;8.60;99.90;;;;;;5090171;28;20561;-76
2022/09/19 04:42:18;;;;;;;59.40;56.47;;;8.60;99.90;;;;;;5090077;28;20207;-77
2022/09/19 04:44:44;;;;;;;91.83;86.93;;;8.60;99.90;;;;;;5092455;28;20197;-77
2022/09/19 04:47:11;;;;;;;26.23;24.57;;;8.70;99.90;;;;;;5111247;28;20219;-76
2022/09/19 04:49:40;;;;;;;16.73;15.83;;;8.70;99.90;;;;;;5111051;28;20180;-76
2022/09/19 04:52:13;;;;;;;23.43;21.90;;;8.70;99.90;;;;;;5111110;28;20176;-76
2022/09/19 04:54:41;;;;;;;26.33;24.93;;;8.70;99.90;;;;;;5111336;28;20238;-77
2022/09/19 04:57:08;;;;;;;34.17;32.37;;;8.70;99.90;;;;;;5112822;28;20577;-77
2022/09/19 04:59:35;;;;;;;79.67;75.83;;;8.80;99.90;;;;;;5102137;28;20265;-77
2022/09/19 05:02:02;;;;;;;60.63;57.20;;;8.80;99.90;;;;;;5090878;28;20225;-77
2022/09/19 05:04:29;;;;;;;48.70;45.87;;;8.80;99.90;;;;;;5090457;28;20250;-77
2022/09/19 05:06:55;;;;;;;48.30;45.83;;;8.80;99.90;;;;;;5091820;28;20187;-77
2022/09/19 05:09:22;;;;;;;11.97;10.93;;;8.80;99.90;;;;;;5091279;28;20181;-77
2022/09/19 05:11:49;;;;;;;8.40;8.00;;;8.90;99.90;;;;;;5089825;28;20174;-76
2022/09/19 05:14:15;;;;;;;10.57;9.63;;;8.90;99.90;;;;;;5103143;28;20211;-76
2022/09/19 05:16:41;;;;;;;8.07;7.23;;;8.90;99.90;;;;;;5109841;28;20267;-79
2022/09/19 05:19:08;;;;;;;8.20;7.47;;;8.90;99.90;;;;;;5109900;28;20188;-76
2022/09/19 05:21:34;;;;;;;8.80;8.00;;;8.90;99.90;;;;;;5110425;28;20679;-77
2022/09/19 05:24:01;;;;;;;8.80;7.97;;;9.00;99.90;;;;;;5109626;28;20564;-77
2022/09/19 05:26:27;;;;;;;12.13;11.50;;;9.00;99.90;;;;;;5111024;28;20180;-77
2022/09/19 05:28:53;;;;;;;13.50;12.07;;;9.00;99.90;;;;;;5090603;28;20177;-77
2022/09/19 05:31:19;;;;;;;12.67;11.77;;;9.00;99.90;;;;;;5090556;28;20173;-76
2022/09/19 05:33:46;;;;;;;15.50;14.60;;;9.00;99.90;;;;;;5090403;28;20333;-76
2022/09/19 05:36:12;;;;;;;18.40;17.03;;;9.00;99.90;;;;;;5089690;28;20183;-77
2022/09/19 05:38:39;;;;;;;15.60;14.50;;;9.10;99.90;;;;;;5090224;28;20564;-77
2022/09/19 05:41:06;;;;;;;17.70;16.60;;;9.10;99.90;;;;;;5087096;28;20664;-76
2022/09/19 05:43:32;;;;;;;21.03;19.13;;;9.10;99.90;;;;;;5090792;28;20207;-76
2022/09/19 05:45:59;;;;;;;26.23;24.53;;;9.10;99.90;;;;;;5088987;28;20633;-77
2022/09/19 05:48:26;;;;;;;23.77;22.17;;;9.20;99.90;;;;;;5091347;28;20276;-77
2022/09/19 05:50:53;;;;;;;34.17;32.30;;;9.20;99.90;;;;;;5093089;28;20646;-77
2022/09/19 05:56:06;;;;;;;27.37;25.73;;;9.30;99.90;;;;;;5105987;28;20187;-77
2022/09/19 05:58:35;;;;;;;10.27;9.67;;;9.40;99.90;;;;;;5114484;28;20184;-77
2022/09/19 06:01:09;;;;;;;6.60;6.00;;;9.40;99.90;;;;;;5112693;28;20216;-77
2022/09/19 06:03:35;;;;;;;16.83;15.60;;;9.40;99.90;;;;;;5113853;28;20200;-77
2022/09/19 06:06:06;;;;;;;29.10;26.97;;;9.40;99.90;;;;;;5113049;28;20175;-77
2022/09/19 06:08:32;;;;;;;26.40;24.47;;;9.50;99.90;;;;;;5113352;28;20202;-77
2022/09/19 06:11:00;;;;;;;25.97;24.50;;;9.60;99.90;;;;;;5115614;28;20180;-77
2022/09/19 06:14:13;;;;;;;24.97;23.37;;;9.70;99.90;;;;;;5116325;28;20200;-77
2022/09/19 06:16:12;;;;;;;21.10;19.67;;;9.70;99.90;;;;;;5112872;28;20553;-77
2022/09/19 06:18:38;;;;;;;15.53;14.47;;;9.70;99.90;;;;;;5112143;28;20547;-77
2022/09/19 06:21:04;;;;;;;13.37;12.40;;;9.80;99.90;;;;;;5113454;28;20216;-78
2022/09/19 06:23:31;;;;;;;7.87;7.23;;;9.80;99.90;;;;;;5104987;28;20749;-80
2022/09/19 06:25:57;;;;;;;10.40;9.40;;;9.80;99.90;;;;;;5093971;28;20178;-79
2022/09/19 06:28:23;;;;;;;10.93;10.23;;;9.80;99.90;;;;;;5095059;28;20798;-79
2022/09/19 06:30:49;;;;;;;11.80;11.10;;;9.90;99.90;;;;;;5097050;28;20181;-73
2022/09/19 06:33:15;;;;;;;16.73;13.63;;;9.90;99.90;;;;;;5092799;28;20296;-75
2022/09/19 06:35:41;;;;;;;15.57;14.10;;;9.90;99.90;;;;;;5092983;28;20181;-76
2022/09/19 06:38:07;;;;;;;14.17;12.90;;;10.00;99.90;;;;;;5105131;28;20731;-76
2022/09/19 06:40:34;;;;;;;12.53;10.37;;;10.00;99.90;;;;;;5119678;28;20208;-75
2022/09/19 06:43:02;;;;;;;9.20;8.70;;;10.10;99.90;;;;;;5116208;28;20296;-75
2022/09/19 06:45:37;;;;;;;9.93;9.20;;;10.20;99.90;;;;;;5112321;28;20188;-76
2022/09/19 06:48:04;;;;;;;11.27;8.77;;;10.20;99.90;;;;;;5112664;28;20180;-75
2022/09/19 06:50:31;;;;;;;11.70;10.63;;;10.20;99.90;;;;;;5113086;28;20578;-76
2022/09/19 06:52:59;;;;;;;8.20;6.23;;;10.30;99.90;;;;;;5071197;28;20178;-76
2022/09/19 06:55:25;;;;;;;5.77;5.30;;;10.30;99.90;;;;;;5072274;28;20239;-76
2022/09/19 06:57:56;;;;;;;9.20;8.40;;;10.40;99.90;;;;;;5070855;28;20228;-76
2022/09/19 07:00:24;;;;;;;8.50;7.80;;;10.50;99.90;;;;;;5072096;28;20267;-76
2022/09/19 07:03:00;;;;;;;9.77;6.67;;;10.60;99.90;;;;;;5072174;28;20247;-76
2022/09/19 07:05:30;;;;;;;13.23;5.77;;;10.70;99.90;;;;;;5087554;28;20176;-77
2022/09/19 07:07:57;;;;;;;7.53;6.83;;;10.80;99.90;;;;;;5102471;28;20177;-76
2022/09/19 07:10:23;;;;;;;14.47;13.43;;;10.80;99.90;;;;;;5112930;28;20188;-75
2022/09/19 07:12:53;;;;;;;19.53;18.17;;;11.00;99.90;;;;;;5100553;28;20177;-75
2022/09/19 07:15:20;;;;;;;18.23;16.53;;;11.10;99.90;;;;;;5112472;28;20180;-74
2022/09/19 07:17:46;;;;;;;9.87;9.17;;;11.10;99.90;;;;;;5109124;28;20232;-74
2022/09/19 07:20:13;;;;;;;15.57;7.87;;;11.00;99.90;;;;;;5112472;28;20243;-75
2022/09/19 07:22:40;;;;;;;14.37;6.50;;;11.10;99.90;;;;;;5112430;28;20173;-75
2022/09/19 07:25:07;;;;;;;7.70;5.70;;;11.20;99.90;;;;;;5112888;28;20180;-75
2022/09/19 07:27:35;;;;;;;9.43;5.13;;;11.30;99.90;;;;;;5100962;28;20672;-73
2022/09/19 07:30:02;;;;;;;12.13;6.70;;;11.40;99.90;;;;;;5094626;28;20181;-73
2022/09/19 07:32:29;;;;;;;5.73;5.27;;;11.20;99.90;;;;;;5103197;28;20283;-74
2022/09/19 07:34:55;;;;;;;6.27;4.93;;;10.90;99.90;;;;;;5092113;28;20715;-75
2022/09/19 07:37:21;;;;;;;8.50;6.00;;;10.90;99.90;;;;;;5090442;28;20172;-74
2022/09/19 07:39:47;;;;;;;12.87;6.17;;;10.90;99.90;;;;;;5090390;28;20649;-74
2022/09/19 07:42:13;;;;;;;6.83;6.17;;;10.80;99.90;;;;;;5109426;28;20251;-75
2022/09/19 07:44:39;;;;;;;6.73;6.00;;;10.80;99.90;;;;;;5112050;28;20192;-75
2022/09/19 07:49:50;;;;;;;10.03;5.60;;;10.70;99.90;;;;;;5111966;28;20184;-75
2022/09/19 07:52:16;;;;;;;6.43;5.03;;;10.80;99.90;;;;;;5112012;28;20183;-76
2022/09/19 07:54:41;;;;;;;7.53;5.27;;;10.90;99.90;;;;;;5106390;28;20209;-76
2022/09/19 07:57:07;;;;;;;8.63;6.27;;;11.00;99.90;;;;;;5090963;28;20191;-75
2022/09/19 07:59:33;;;;;;;7.17;6.33;;;11.00;99.90;;;;;;5090043;28;20220;-76
2022/09/19 08:01:59;;;;;;;8.23;6.87;;;11.00;99.90;;;;;;5090966;28;20184;-75
2022/09/19 08:04:24;;;;;;;7.23;6.40;;;11.00;99.90;;;;;;5094645;28;20193;-75
2022/09/19 08:06:51;;;;;;;12.63;7.90;;;11.00;99.90;;;;;;5097930;28;20181;-75
2022/09/19 08:09:17;;;;;;;11.07;6.90;;;11.10;99.90;;;;;;5103633;28;20183;-76
2022/09/19 08:11:43;;;;;;;9.97;5.43;;;11.30;99.90;;;;;;5115466;28;20202;-76
2022/09/19 08:14:09;;;;;;;7.13;5.70;;;11.40;99.90;;;;;;5116697;28;20201;-77
2022/09/19 08:16:35;;;;;;;7.73;4.83;;;11.40;99.90;;;;;;5115601;28;20271;-76
2022/09/19 08:19:01;;;;;;;9.50;6.17;;;11.40;99.90;;;;;;5100944;28;20722;-75
2022/09/19 08:21:27;;;;;;;10.07;4.60;;;11.70;99.90;;;;;;5098268;28;20214;-77
2022/09/19 08:23:53;;;;;;;7.77;4.93;;;11.70;99.90;;;;;;5099588;28;20205;-79
2022/09/19 08:26:19;;;;;;;9.17;5.87;;;11.80;99.90;;;;;;5089425;28;20181;-78
2022/09/19 08:28:48;;;;;;;11.00;6.50;;;11.90;99.90;;;;;;5091463;28;20236;-78
2022/09/19 08:31:14;;;;;;;11.63;10.73;;;11.90;99.90;;;;;;5093049;28;20212;-78
2022/09/19 08:33:40;;;;;;;16.93;15.80;;;12.00;99.90;;;;;;5093086;28;20707;-78
2022/09/19 08:36:06;;;;;;;16.40;15.20;;;11.90;99.90;;;;;;5094966;28;20185;-78
2022/09/19 08:38:33;;;;;;;18.50;16.93;;;12.00;99.90;;;;;;5095007;28;20576;-78
2022/09/19 08:40:58;;;;;;;19.03;17.80;;;12.10;99.90;;;;;;5093215;28;20283;-80
2022/09/19 08:43:37;;;;;;;22.00;20.27;;;12.20;99.90;;;;;;5094023;28;20632;-79
2022/09/19 08:46:18;;;;;;;27.37;24.73;;;12.20;99.90;;;;;;5105748;28;20675;-79
2022/09/19 08:49:35;;;;;;;17.73;16.40;;;12.30;99.90;;;;;;5098591;28;20183;-80
2022/09/19 08:52:07;;;;;;;19.20;18.00;;;12.30;99.90;;;;;;5054757;28;20193;-80
2022/09/19 08:54:39;;;;;;;12.40;11.40;;;12.20;99.90;;;;;;5077432;28;20218;-81
2022/09/19 08:57:19;;;;;;;14.17;12.00;;;12.20;99.90;;;;;;5074021;28;20187;-79
2022/09/19 08:59:49;;;;;;;13.50;12.40;;;12.10;99.90;;;;;;5073997;28;20681;-79
2022/09/19 09:02:38;;;;;;;23.03;21.20;;;11.90;99.90;;;;;;5080661;28;20176;-80
2022/09/19 09:05:04;;;;;;;16.80;15.40;;;11.80;99.90;;;;;;5099470;28;20569;-79
2022/09/19 09:07:31;;;;;;;12.53;11.43;;;11.80;99.90;;;;;;5113781;28;20182;-81
2022/09/19 09:10:11;;;;;;;14.80;13.33;;;12.10;99.90;;;;;;5092665;28;20668;-79
2022/09/19 09:12:57;;;;;;;16.17;14.63;;;12.30;99.90;;;;;;5103027;28;20192;-79
2022/09/19 09:15:50;;;;;;;16.13;14.90;;;12.50;99.90;;;;;;5094152;28;20237;-79
2022/09/19 09:18:32;;;;;;;12.53;11.53;;;12.60;99.90;;;;;;5103291;28;20249;-79
2022/09/19 09:21:12;;;;;;;11.97;10.83;;;12.60;99.90;;;;;;5081393;28;20299;-79
2022/09/19 09:23:44;;;;;;;12.10;10.87;;;12.40;99.90;;;;;;5075085;28;20748;-78
2022/09/19 09:26:24;;;;;;;15.93;10.87;;;12.40;99.90;;;;;;5075933;28;20219;-79
2022/09/19 09:29:08;;;;;;;8.37;7.13;;;12.50;99.90;;;;;;5074338;28;20177;-78
2022/09/19 09:31:41;;;;;;;12.57;8.30;;;12.40;99.90;;;;;;5079141;28;20178;-78
2022/09/19 09:34:29;;;;;;;10.23;9.10;;;12.40;99.90;;;;;;5114044;28;20210;-78
2022/09/19 09:37:04;;;;;;;11.93;8.00;;;12.40;99.90;;;;;;5115878;28;20202;-78
2022/09/19 09:41:44;;;;;;;7.10;6.30;;;12.40;99.90;;;;;;5116112;28;20208;-78
2022/09/19 09:43:05;;;;;;;7.50;5.67;;;12.60;99.90;;;;;;5116851;28;20240;-79
2022/09/19 09:45:50;;;;;;;5.53;4.60;;;12.80;99.90;;;;;;5115281;28;20182;-78
2022/09/19 09:48:26;;;;;;;6.20;4.70;;;12.70;99.90;;;;;;5113314;28;20624;-78
2022/09/19 09:50:55;;;;;;;8.67;4.73;;;12.30;99.90;;;;;;5115530;28;20190;-78
2022/09/19 10:03:34;;;;;;;17.03;6.33;;;12.00;99.90;;;;;;4993721;28;20184;-74
2022/09/19 10:05:36;;;;;;;8.30;6.07;;;12.10;99.90;;;;;;4984719;28;20756;-74
2022/09/19 10:08:28;;;;;;;8.47;6.00;;;12.20;99.90;;;;;;4976320;28;20572;-76
2022/09/19 10:11:02;;;;;;;5.27;4.77;;;12.30;99.90;;;;;;4975459;28;20276;-75
2022/09/19 10:13:31;;;;;;;8.70;4.93;;;12.50;99.90;;;;;;4972894;28;20226;-74
2022/09/19 10:16:01;;;;;;;7.37;4.93;;;12.80;99.90;;;;;;4974395;28;20185;-76
2022/09/19 10:18:41;;;;;;;9.80;4.00;;;13.30;99.90;;;;;;4990651;28;20246;-74
2022/09/19 10:21:07;;;;;;;5.53;4.87;;;13.60;99.90;;;;;;4994081;28;20220;-74
2022/09/19 10:23:33;;;;;;;6.57;4.53;;;13.80;99.90;;;;;;4989735;28;20266;-74
2022/09/19 10:26:04;;;;;;;7.23;5.43;;;14.00;99.90;;;;;;4973662;28;20633;-74
2022/09/19 10:28:37;;;;;;;11.53;10.53;;;14.00;99.90;;;;;;4991872;28;20184;-73
2022/09/19 10:31:04;;;;;;;14.73;13.80;;;14.10;99.90;;;;;;4992640;28;20676;-74
2022/09/19 10:33:42;;;;;;;25.03;23.47;;;14.00;99.90;;;;;;4976438;28;20601;-72
2022/09/19 10:36:32;;;;;;;22.93;21.53;;;14.30;99.90;;;;;;4971925;28;20716;-73
2022/09/19 10:39:03;;;;;;;12.03;11.03;;;14.30;99.90;;;;;;4971349;28;20201;-74
2022/09/19 10:41:32;;;;;;;10.17;9.13;;;14.30;99.90;;;;;;4973136;28;20228;-73
2022/09/19 10:44:23;;;;;;;6.47;6.07;;;14.40;99.90;;;;;;4971404;28;20212;-73
2022/09/19 10:46:58;;;;;;;6.00;5.17;;;14.60;99.90;;;;;;4992464;28;20319;-73
2022/09/19 10:49:28;;;;;;;7.20;6.50;;;14.70;99.90;;;;;;4989615;28;20188;-73
2022/09/19 10:51:56;;;;;;;5.97;5.40;;;15.20;99.90;;;;;;4975375;28;20205;-76
2022/09/19 10:54:36;;;;;;;6.20;5.33;;;15.90;99.90;;;;;;4971938;28;20362;-73
2022/09/19 10:57:26;;;;;;;8.93;5.87;;;16.20;99.90;;;;;;4972892;28;20185;-73
2022/09/19 10:59:54;;;;;;;6.13;5.43;;;16.30;99.90;;;;;;4972935;28;20617;-73
2022/09/19 11:02:27;;;;;;;5.77;5.27;;;15.80;99.90;;;;;;4971976;28;20192;-74
2022/09/19 11:05:05;;;;;;;6.43;5.83;;;15.30;99.90;;;;;;4973133;28;20209;-74
2022/09/19 11:07:42;;;;;;;6.77;5.63;;;14.90;99.90;;;;;;4973423;28;20185;-74
2022/09/19 11:10:38;;;;;;;7.73;6.87;;;14.50;99.90;;;;;;4971655;28;20188;-75
2022/09/19 11:13:11;;;;;;;9.03;6.40;;;14.60;99.90;;;;;;4973152;28;20192;-76
2022/09/19 11:15:55;;;;;;;8.73;7.97;;;14.90;99.90;;;;;;4965098;28;20309;-76
2022/09/19 11:18:43;;;;;;;7.33;5.70;;;15.50;99.90;;;;;;4971221;28;20185;-76
2022/09/19 11:21:17;;;;;;;6.30;5.40;;;16.50;99.90;;;;;;4973178;28;20583;-76
2022/09/19 11:23:58;;;;;;;19.60;18.47;;;16.90;99.90;;;;;;4971879;28;20200;-76
2022/09/19 11:26:42;;;;;;;8.03;7.50;;;17.90;99.90;;;;;;4972688;28;20177;-76
2022/09/19 11:29:36;;;;;;;5.67;5.20;;;18.50;99.90;;;;;;4974468;28;20185;-77
2022/09/19 11:32:08;;;;;;;6.57;5.63;;;18.70;99.90;;;;;;4987896;28;20185;-76
2022/09/19 11:34:48;;;;;;;6.17;5.77;;;18.80;99.90;;;;;;4972154;28;20248;-76
2022/09/19 11:37:41;;;;;;;7.40;4.13;;;18.10;99.90;;;;;;4970767;28;20216;-76
2022/09/19 11:40:20;;;;;;;5.70;5.00;;;17.40;99.90;;;;;;4987713;28;20703;-76
2022/09/19 11:43:13;;;;;;;5.50;5.00;;;17.00;99.90;;;;;;4972543;28;20192;-76
2022/09/19 11:45:56;;;;;;;9.20;8.37;;;16.30;99.90;;;;;;4973978;28;20201;-76
2022/09/19 11:48:31;;;;;;;12.67;11.90;;;15.90;99.90;;;;;;4980403;28;20642;-75
2022/09/19 11:51:20;;;;;;;13.83;12.97;;;15.80;99.90;;;;;;4972675;28;20605;-76
2022/09/19 11:54:17;;;;;;;19.37;18.07;;;15.60;99.90;;;;;;4978177;28;20227;-76
2022/09/19 11:57:02;;;;;;;28.40;26.77;;;15.30;99.90;;;;;;4995369;28;20187;-76
2022/09/19 11:59:42;;;;;;;29.40;28.00;;;15.00;99.90;;;;;;5011722;28;20258;-75
2022/09/19 12:02:44;;;;;;;27.60;26.00;;;14.90;99.90;;;;;;5010225;28;20180;-76
2022/09/19 12:05:28;;;;;;;8.00;4.70;;;14.80;99.90;;;;;;4998227;28;20199;-78
2022/09/19 12:08:17;;;;;;;7.30;4.43;;;14.80;99.90;;;;;;4993815;28;20248;-75
2022/09/19 12:10:54;;;;;;;8.10;7.30;;;15.00;99.90;;;;;;4971414;28;20434;-74
2022/09/19 12:13:37;;;;;;;8.17;7.57;;;15.20;99.90;;;;;;4997521;28;20172;-74
2022/09/19 12:16:10;;;;;;;6.83;4.67;;;15.80;99.90;;;;;;5009924;28;20211;-74
2022/09/19 12:18:41;;;;;;;11.23;10.33;;;16.30;99.90;;;;;;5006359;28;20200;-74
2022/09/19 12:21:09;;;;;;;32.07;30.13;;;16.60;99.90;;;;;;5004892;28;20214;-75
2022/09/19 12:27:01;;;;;;;11.13;10.17;;;18.20;99.90;;;;;;5011480;28;20195;-75
2022/09/19 12:29:34;;;;;;;6.03;5.53;;;18.30;99.90;;;;;;5010929;28;20179;-75
2022/09/19 12:32:40;;;;;;;5.93;5.23;;;18.10;99.90;;;;;;5011131;28;20322;-75
2022/09/19 12:35:34;;;;;;;6.13;5.63;;;17.50;99.90;;;;;;4988832;28;20207;-75
2022/09/19 12:38:31;;;;;;;8.17;7.37;;;17.00;99.90;;;;;;4974655;28;20192;-75
2022/09/19 12:41:26;;;;;;;12.67;11.70;;;16.80;99.90;;;;;;5011129;28;20211;-74
2022/09/19 12:44:16;;;;;;;14.67;13.83;;;16.50;99.90;;;;;;4985404;28;20827;-74
2022/09/19 12:46:44;;;;;;;20.23;19.10;;;16.40;99.90;;;;;;5010963;28;20270;-74
2022/09/19 12:49:26;;;;;;;19.03;17.70;;;16.40;99.90;;;;;;5010898;28;20184;-75
2022/09/19 12:52:17;;;;;;;20.50;19.37;;;16.30;99.90;;;;;;4993557;28;20661;-74
2022/09/19 12:55:08;;;;;;;20.33;18.90;;;16.60;99.90;;;;;;4973028;28;20305;-75
2022/09/19 12:58:03;;;;;;;16.27;15.23;;;17.00;99.90;;;;;;5013660;28;20183;-76
2022/09/19 13:00:35;;;;;;;12.13;11.23;;;17.10;99.90;;;;;;5009301;28;20217;-75
2022/09/19 13:03:13;;;;;;;21.13;19.80;;;16.70;99.90;;;;;;5014849;28;20179;-76
2022/09/19 13:06:05;;;;;;;21.87;20.77;;;16.30;99.90;;;;;;4998016;28;20599;-76
2022/09/19 13:08:56;;;;;;;29.70;27.93;;;15.90;99.90;;;;;;4996926;28;20204;-75
2022/09/19 13:11:36;;;;;;;21.93;20.47;;;15.70;99.90;;;;;;5014610;28;20187;-75
2022/09/19 13:14:21;;;;;;;28.30;26.80;;;16.20;99.90;;;;;;4995069;28;20214;-76
2022/09/19 13:25:26;;;;;;;5.60;5.20;;;18.70;99.90;;;;;;4999781;28;20251;-76
2022/09/19 13:28:22;;;;;;;7.50;6.80;;;19.00;99.90;;;;;;4996911;28;20239;-76
2022/09/19 13:31:04;;;;;;;6.90;6.30;;;20.00;99.90;;;;;;4997219;28;20199;-76
2022/09/19 13:33:57;;;;;;;5.23;4.83;;;20.00;99.90;;;;;;4994801;28;20180;-75
2022/09/19 13:36:23;;;;;;;5.33;4.93;;;19.90;99.90;;;;;;4995916;28;20194;-75
2022/09/19 13:38:53;;;;;;;5.60;5.10;;;19.20;99.90;;;;;;4996293;28;20183;-75
2022/09/19 13:41:45;;;;;;;6.13;5.60;;;18.40;99.90;;;;;;5014352;28;20217;-75
2022/09/19 13:44:36;;;;;;;6.40;6.00;;;17.60;99.90;;;;;;5014188;28;20204;-75
2022/09/19 13:47:19;;;;;;;9.60;7.47;;;17.10;99.90;;;;;;4996651;28;20186;-75